createdAt,value
2022-08-17T00:01:03.445Z,9.32
2022-08-17T00:06:00.360Z,8.20
2022-08-17T00:10:54.865Z,8.25
2022-08-17T00:15:49.004Z,8.18
2022-08-17T00:20:43.890Z,8.63
2022-08-17T00:25:37.721Z,9.10
2022-08-17T00:30:52.780Z,9.05
2022-08-17T00:35:50.541Z,8.35
2022-08-17T00:40:47.910Z,8.20
2022-08-17T00:45:41.956Z,8.55
2022-08-17T00:50:40.099Z,8.45
2022-08-17T00:55:35.141Z,8.40
2022-08-17T01:00:30.550Z,8.50
2022-08-17T01:05:28.589Z,8.63
2022-08-17T01:10:58.301Z,8.30
2022-08-17T01:15:51.034Z,8.50
2022-08-17T01:20:50.875Z,8.30
2022-08-17T01:25:46.031Z,8.30
2022-08-17T01:30:57.160Z,8.35
2022-08-17T01:35:55.528Z,8.20
2022-08-17T01:40:57.456Z,8.38
2022-08-17T01:46:03.591Z,9.00
2022-08-17T01:50:57.953Z,8.48
2022-08-17T01:55:55.355Z,8.13
2022-08-17T02:01:00.746Z,8.68
2022-08-17T02:05:58.678Z,8.40
2022-08-17T02:10:59.629Z,7.85
2022-08-17T02:16:07.774Z,8.73
2022-08-17T02:21:02.863Z,8.50
2022-08-17T02:25:59.540Z,8.68
2022-08-17T02:31:01.615Z,8.45
2022-08-17T02:35:58.022Z,8.38
2022-08-17T02:40:57.211Z,7.80
2022-08-17T02:45:52.855Z,8.73
2022-08-17T02:50:46.517Z,8.38
2022-08-17T02:55:42.354Z,8.63
2022-08-17T03:00:42.480Z,7.72
2022-08-17T03:05:39.472Z,7.72
2022-08-17T03:10:35.959Z,9.30
2022-08-17T03:15:31.725Z,8.90
2022-08-17T03:20:29.714Z,8.75
2022-08-17T03:25:27.850Z,8.95
2022-08-17T03:30:23.718Z,9.20
2022-08-17T03:35:24.458Z,9.68
2022-08-17T03:40:34.626Z,9.27
2022-08-17T03:45:56.574Z,9.77
2022-08-17T03:51:11.435Z,10.25
2022-08-17T03:56:25.623Z,10.05
2022-08-17T04:01:20.577Z,10.32
2022-08-17T04:06:14.640Z,10.85
2022-08-17T04:11:12.259Z,9.80
2022-08-17T04:16:06.823Z,9.00
2022-08-17T04:21:01.835Z,9.70
2022-08-17T04:25:57.885Z,9.50
2022-08-17T04:30:54.028Z,8.82
2022-08-17T04:35:55.601Z,9.40
2022-08-17T04:41:09.653Z,9.65
2022-08-17T04:46:08.397Z,9.85
2022-08-17T04:51:15.977Z,9.73
2022-08-17T04:56:18.121Z,10.88
2022-08-17T05:06:22.714Z,8.23
2022-08-17T05:11:23.798Z,7.63
2022-08-17T05:16:27.565Z,8.95
2022-08-17T05:21:37.783Z,7.43
2022-08-17T05:26:38.282Z,7.43
2022-08-17T05:31:33.052Z,7.38
2022-08-17T05:42:32.868Z,6.82
2022-08-17T05:48:05.883Z,7.53
2022-08-17T05:53:42.929Z,7.10
2022-08-17T06:05:26.585Z,6.88
2022-08-17T06:16:47.823Z,7.40
2022-08-17T06:21:48.239Z,7.03
2022-08-17T06:26:46.634Z,8.43
2022-08-17T06:32:02.673Z,7.50
2022-08-17T06:37:08.025Z,8.10
2022-08-17T06:43:02.437Z,7.85
2022-08-17T06:48:15.478Z,7.93
2022-08-17T07:25:49.697Z,7.22
2022-08-17T07:31:21.300Z,7.15
2022-08-17T07:36:43.876Z,7.20
2022-08-17T08:07:53.663Z,6.72
2022-08-17T08:13:28.262Z,7.10
2022-08-17T08:18:53.803Z,7.28
2022-08-17T08:24:18.153Z,6.68
2022-08-17T08:29:28.296Z,6.55
2022-08-17T08:34:59.002Z,6.53
2022-08-17T08:41:19.097Z,6.80
2022-08-17T08:46:43.151Z,6.00
2022-08-17T08:59:58.618Z,6.05
2022-08-17T09:05:15.666Z,5.93
2022-08-17T09:10:38.483Z,6.22
2022-08-17T09:15:56.175Z,6.07
2022-08-17T09:26:46.990Z,6.38
2022-08-17T09:31:55.431Z,6.15
2022-08-17T09:37:02.543Z,6.07
2022-08-17T09:43:17.816Z,6.30
2022-08-17T09:48:27.772Z,6.90
2022-08-17T09:59:47.873Z,5.68
2022-08-17T10:05:52.346Z,5.88
2022-08-17T10:11:06.906Z,5.50
2022-08-17T10:22:14.727Z,5.72
2022-08-17T10:33:56.883Z,5.30
2022-08-17T10:59:04.540Z,5.22
2022-08-17T11:01:13.874Z,4.80
2022-08-17T11:14:12.604Z,4.13
2022-08-17T11:17:50.892Z,4.20
2022-08-17T11:23:28.299Z,3.63
2022-08-17T11:28:45.765Z,3.60
2022-08-17T11:34:06.695Z,3.90
2022-08-17T11:40:25.086Z,4.22
2022-08-17T11:46:29.628Z,3.80
2022-08-17T11:52:05.449Z,3.88
2022-08-17T12:03:58.068Z,4.13
2022-08-17T12:10:40.341Z,3.53
2022-08-17T12:16:22.420Z,3.85
2022-08-17T12:29:59.221Z,3.72
2022-08-17T12:36:15.143Z,4.15
2022-08-17T12:53:08.604Z,3.80
2022-08-17T13:23:12.009Z,3.72
2022-08-17T13:28:45.651Z,4.95
2022-08-17T13:47:50.805Z,4.32
2022-08-17T13:52:54.350Z,4.13
2022-08-17T13:58:06.475Z,3.67
2022-08-17T14:09:22.687Z,4.38
2022-08-17T14:14:18.958Z,5.05
2022-08-17T14:19:16.419Z,5.53
2022-08-17T14:30:22.542Z,4.68
2022-08-17T14:35:29.039Z,4.35
2022-08-17T14:41:06.157Z,4.75
2022-08-17T14:46:07.005Z,3.60
2022-08-17T14:51:56.564Z,3.53
2022-08-17T15:02:11.606Z,3.90
2022-08-17T15:49:59.885Z,6.03
2022-08-17T15:55:48.145Z,5.72
2022-08-17T16:14:40.359Z,4.05
2022-08-17T16:19:34.982Z,8.73
2022-08-17T16:24:28.609Z,5.03
2022-08-17T16:29:22.295Z,4.90
2022-08-17T16:34:21.055Z,4.85
2022-08-17T16:39:17.192Z,4.75
2022-08-17T16:44:18.614Z,5.50
2022-08-17T16:49:13.742Z,5.03
2022-08-17T16:54:29.578Z,4.40
2022-08-17T16:59:30.925Z,4.72
2022-08-17T17:11:30.403Z,4.57
2022-08-17T17:16:50.830Z,4.97
2022-08-17T17:28:25.921Z,5.40
2022-08-17T17:33:32.860Z,5.93
2022-08-17T17:38:54.523Z,5.45
2022-08-17T17:49:14.394Z,10.00
2022-08-17T17:54:18.506Z,6.45
2022-08-17T17:59:25.017Z,6.68
2022-08-17T18:04:41.556Z,7.00
2022-08-17T18:09:53.762Z,6.45
2022-08-17T18:15:31.501Z,7.80
2022-08-17T18:20:35.925Z,7.72
2022-08-17T18:25:50.478Z,6.70
2022-08-17T18:32:25.689Z,6.10
2022-08-17T18:36:56.824Z,6.13
2022-08-17T18:41:54.345Z,5.18
2022-08-17T18:47:09.176Z,4.78
2022-08-17T18:52:18.116Z,5.00
2022-08-17T18:57:35.258Z,5.15
2022-08-17T19:02:46.136Z,5.57
2022-08-17T19:07:47.286Z,5.30
2022-08-17T19:13:00.885Z,5.20
2022-08-17T19:18:00.774Z,5.18
2022-08-17T19:23:23.486Z,5.80
2022-08-17T19:28:25.433Z,5.68
2022-08-17T19:33:23.318Z,5.80
2022-08-17T19:38:53.332Z,5.43
2022-08-17T19:49:07.638Z,5.15
2022-08-17T19:54:18.152Z,6.72
2022-08-17T19:59:25.460Z,5.60
2022-08-17T20:04:42.956Z,4.93
2022-08-17T20:09:52.740Z,4.90
2022-08-17T20:14:55.453Z,6.07
2022-08-17T20:20:05.077Z,5.47
2022-08-17T20:25:08.403Z,5.10
2022-08-17T20:30:10.575Z,6.82
2022-08-17T20:35:19.036Z,5.50
2022-08-17T20:40:22.624Z,6.37
2022-08-17T20:46:09.074Z,6.22
2022-08-17T20:51:19.527Z,5.45
2022-08-17T20:56:56.331Z,5.65
2022-08-17T21:02:18.770Z,5.93
2022-08-17T21:07:29.412Z,6.55
2022-08-17T21:12:43.495Z,5.90
2022-08-17T21:17:51.557Z,6.00
2022-08-17T21:23:02.721Z,5.82
2022-08-17T21:28:08.361Z,5.30
2022-08-17T21:33:21.195Z,4.85
2022-08-17T21:38:15.933Z,5.28
2022-08-17T21:43:31.922Z,5.90
2022-08-17T21:48:29.390Z,5.20
2022-08-17T21:53:32.730Z,5.30
2022-08-17T21:58:32.363Z,5.30
2022-08-17T22:08:26.144Z,5.18
2022-08-17T22:13:29.567Z,6.05
2022-08-17T22:18:29.277Z,5.30
2022-08-17T22:23:43.323Z,5.40
2022-08-17T22:28:45.941Z,5.65
2022-08-17T22:33:45.639Z,5.47
2022-08-17T22:38:39.624Z,5.25
2022-08-17T22:43:43.699Z,6.10
2022-08-17T22:48:46.156Z,5.47
2022-08-17T22:54:04.870Z,5.45
2022-08-17T22:59:17.640Z,5.70
2022-08-17T23:04:13.432Z,5.75
2022-08-17T23:09:12.605Z,6.10
2022-08-17T23:14:06.333Z,5.65
2022-08-17T23:18:59.883Z,5.45
2022-08-17T23:23:57.127Z,5.72
2022-08-17T23:28:52.110Z,6.03
2022-08-17T23:33:47.007Z,6.22
2022-08-17T23:38:40.503Z,5.80
2022-08-17T23:43:36.480Z,5.95
2022-08-17T23:48:36.110Z,5.78
2022-08-17T23:53:32.069Z,5.95
2022-08-17T23:58:25.540Z,6.78
